createdAt,value
2023-11-30T00:00:43.610Z,5.72
2023-11-30T00:03:49.410Z,9.27
2023-11-30T00:06:55.284Z,12.10
2023-11-30T00:10:00.828Z,8.80
2023-11-30T00:13:06.184Z,8.48
2023-11-30T00:16:12.093Z,7.38
2023-11-30T00:19:17.908Z,6.70
2023-11-30T00:22:23.851Z,7.25
2023-11-30T00:25:30.098Z,6.72
2023-11-30T00:28:35.829Z,5.90
2023-11-30T00:31:42.454Z,6.63
2023-11-30T00:34:49.081Z,9.85
2023-11-30T00:37:54.495Z,5.60
2023-11-30T00:41:00.252Z,7.55
2023-11-30T00:44:05.980Z,9.95
2023-11-30T00:47:11.551Z,6.28
2023-11-30T00:50:17.276Z,7.10
2023-11-30T00:53:23.015Z,7.38
2023-11-30T00:56:28.755Z,5.53
2023-11-30T00:59:34.561Z,7.45
2023-11-30T01:02:41.223Z,6.47
2023-11-30T01:05:47.614Z,6.18
2023-11-30T01:08:53.287Z,7.25
2023-11-30T01:11:58.920Z,5.25
2023-11-30T01:15:05.603Z,6.10
2023-11-30T01:18:14.201Z,5.05
2023-11-30T01:21:19.935Z,5.43
2023-11-30T01:24:25.682Z,5.93
2023-11-30T01:27:30.906Z,4.95
2023-11-30T01:30:36.322Z,6.50
2023-11-30T01:33:42.138Z,5.80
2023-11-30T01:36:47.400Z,7.50
2023-11-30T01:39:52.942Z,5.68
2023-11-30T01:42:58.794Z,4.93
2023-11-30T01:46:05.036Z,9.50
2023-11-30T01:49:10.778Z,7.18
2023-11-30T01:52:16.533Z,7.05
2023-11-30T01:55:22.996Z,6.20
2023-11-30T01:58:28.660Z,7.38
2023-11-30T02:01:36.452Z,7.03
2023-11-30T02:04:43.786Z,5.05
2023-11-30T02:07:49.863Z,10.05
2023-11-30T02:10:57.091Z,6.15
2023-11-30T02:14:04.541Z,6.93
2023-11-30T02:17:10.298Z,5.20
2023-11-30T02:20:16.049Z,7.53
2023-11-30T02:23:22.025Z,7.15
2023-11-30T02:26:27.792Z,5.13
2023-11-30T02:29:33.265Z,5.95
2023-11-30T02:32:39.045Z,6.25
2023-11-30T02:35:44.876Z,5.85
2023-11-30T02:38:50.649Z,7.13
2023-11-30T02:41:56.399Z,6.63
2023-11-30T02:45:02.290Z,8.98
2023-11-30T02:48:08.276Z,4.45
2023-11-30T02:51:14.112Z,8.00
2023-11-30T02:54:21.015Z,6.20
2023-11-30T02:57:27.048Z,8.75
2023-11-30T03:00:32.933Z,5.72
2023-11-30T03:03:38.565Z,6.93
2023-11-30T03:06:44.602Z,6.60
2023-11-30T03:09:50.323Z,9.13
2023-11-30T03:12:56.274Z,9.00
2023-11-30T03:16:02.097Z,7.80
2023-11-30T03:19:16.335Z,11.20
2023-11-30T03:22:23.449Z,6.13
2023-11-30T03:25:29.091Z,11.27
2023-11-30T03:28:34.890Z,5.97
2023-11-30T03:31:41.043Z,5.13
2023-11-30T03:34:48.380Z,7.57
2023-11-30T03:37:54.349Z,7.65
2023-11-30T03:41:01.078Z,6.72
2023-11-30T03:44:06.767Z,7.32
2023-11-30T03:47:12.151Z,7.78
2023-11-30T03:50:18.004Z,11.00
2023-11-30T03:53:23.544Z,9.80
2023-11-30T03:56:32.547Z,12.38
2023-11-30T03:59:38.098Z,8.75
2023-11-30T04:02:44.666Z,9.98
2023-11-30T04:05:50.558Z,9.40
2023-11-30T04:08:56.217Z,9.55
2023-11-30T04:12:01.736Z,8.00
2023-11-30T04:15:08.221Z,8.63
2023-11-30T04:18:13.983Z,8.45
2023-11-30T04:21:22.532Z,12.02
2023-11-30T04:24:28.486Z,11.57
2023-11-30T04:27:33.979Z,10.52
2023-11-30T04:30:39.772Z,12.60
2023-11-30T04:33:45.409Z,12.25
2023-11-30T04:36:51.069Z,11.40
2023-11-30T04:39:58.272Z,12.65
2023-11-30T04:43:04.223Z,12.02
2023-11-30T04:46:10.430Z,14.85
2023-11-30T04:49:16.317Z,14.57
2023-11-30T04:52:22.250Z,10.73
2023-11-30T04:55:27.500Z,13.38
2023-11-30T04:58:33.576Z,14.88
2023-11-30T05:01:38.981Z,15.23
2023-11-30T05:04:44.750Z,13.70
2023-11-30T05:07:50.775Z,13.43
2023-11-30T05:10:56.885Z,18.77
2023-11-30T05:14:03.164Z,15.10
2023-11-30T05:17:08.872Z,18.67
2023-11-30T05:20:14.693Z,19.13
2023-11-30T05:23:20.680Z,19.15
2023-11-30T05:26:26.516Z,13.60
2023-11-30T05:29:32.222Z,16.65
2023-11-30T05:32:37.386Z,18.42
2023-11-30T05:35:42.976Z,14.25
2023-11-30T05:38:48.350Z,14.85
2023-11-30T05:41:54.784Z,16.23
2023-11-30T05:44:59.934Z,15.27
2023-11-30T05:48:05.593Z,15.40
2023-11-30T05:51:11.098Z,10.73
2023-11-30T05:54:17.299Z,10.95
2023-11-30T05:57:23.113Z,10.05
2023-11-30T06:00:28.585Z,11.07
2023-11-30T06:03:34.185Z,10.63
2023-11-30T06:06:39.669Z,12.18
2023-11-30T06:09:45.269Z,8.10
2023-11-30T06:12:50.696Z,9.13
2023-11-30T06:15:56.238Z,7.18
2023-11-30T06:19:01.878Z,9.40
2023-11-30T06:22:08.123Z,8.82
2023-11-30T06:25:13.793Z,7.78
2023-11-30T06:28:21.142Z,8.20
2023-11-30T06:31:26.233Z,7.15
2023-11-30T06:34:35.000Z,8.52
2023-11-30T06:37:40.751Z,8.35
2023-11-30T06:40:46.618Z,6.25
2023-11-30T06:43:52.388Z,10.13
2023-11-30T06:46:57.680Z,7.13
2023-11-30T06:50:04.818Z,9.73
2023-11-30T06:53:10.753Z,10.88
2023-11-30T06:56:16.020Z,8.98
2023-11-30T06:59:21.170Z,11.30
2023-11-30T07:02:26.463Z,11.20
2023-11-30T07:05:31.700Z,9.93
2023-11-30T07:08:36.971Z,9.73
2023-11-30T07:11:43.971Z,14.18
2023-11-30T07:14:51.549Z,8.68
2023-11-30T07:17:57.511Z,10.35
2023-11-30T07:21:02.764Z,8.73
2023-11-30T07:24:11.522Z,10.40
2023-11-30T07:27:19.696Z,11.48
2023-11-30T07:30:25.125Z,14.63
2023-11-30T07:33:30.881Z,12.25
2023-11-30T07:36:36.073Z,10.10
2023-11-30T07:39:41.386Z,9.75
2023-11-30T07:42:47.408Z,12.88
2023-11-30T07:45:52.645Z,14.27
2023-11-30T07:48:58.123Z,12.52
2023-11-30T07:52:03.793Z,14.23
2023-11-30T07:55:09.563Z,13.23
2023-11-30T07:58:14.888Z,11.40
2023-11-30T08:01:20.057Z,12.48
2023-11-30T08:04:25.994Z,12.13
2023-11-30T08:07:30.991Z,15.75
2023-11-30T08:10:36.247Z,17.33
2023-11-30T08:13:42.136Z,15.70
2023-11-30T08:16:47.775Z,15.73
2023-11-30T08:19:53.630Z,18.73
2023-11-30T08:22:59.407Z,23.77
2023-11-30T08:26:05.456Z,18.98
2023-11-30T08:29:10.769Z,17.92
2023-11-30T21:10:15.665Z,25.38
2023-11-30T21:13:21.086Z,26.80
2023-11-30T21:16:26.403Z,25.27
2023-11-30T21:19:32.423Z,25.35
2023-11-30T21:22:37.900Z,26.60
2023-11-30T21:25:44.638Z,26.67
2023-11-30T21:28:49.880Z,23.52
2023-11-30T21:31:55.898Z,29.20
2023-11-30T21:35:01.783Z,29.45
2023-11-30T21:38:07.383Z,26.50
2023-11-30T21:41:16.754Z,27.73
2023-11-30T21:44:22.251Z,26.80
2023-11-30T21:47:27.973Z,27.40
2023-11-30T21:50:33.318Z,29.70
2023-11-30T21:53:38.970Z,28.42
2023-11-30T21:56:44.402Z,30.33
2023-11-30T21:59:49.909Z,26.83
2023-11-30T22:02:55.817Z,30.30
2023-11-30T22:06:01.137Z,33.15
2023-11-30T22:09:07.295Z,27.98
2023-11-30T22:12:12.646Z,32.72
2023-11-30T22:15:19.923Z,33.22
2023-11-30T22:18:25.728Z,31.65
2023-11-30T22:21:32.336Z,32.33
2023-11-30T22:24:38.917Z,34.05
2023-11-30T22:27:44.482Z,35.53
2023-11-30T22:30:49.880Z,35.85
2023-11-30T22:33:55.279Z,34.50
2023-11-30T22:37:02.368Z,34.88
2023-11-30T22:40:08.644Z,35.88
2023-11-30T22:43:14.421Z,38.20
2023-11-30T22:46:20.811Z,39.40
2023-11-30T22:49:26.621Z,36.58
2023-11-30T22:52:32.416Z,32.58
2023-11-30T22:55:38.044Z,40.25
2023-11-30T22:58:43.458Z,32.28
2023-11-30T23:01:49.454Z,34.40
2023-11-30T23:04:55.602Z,36.85
2023-11-30T23:08:01.110Z,37.22
2023-11-30T23:11:08.571Z,37.20
2023-11-30T23:14:14.599Z,33.60
2023-11-30T23:17:21.285Z,36.45
2023-11-30T23:20:27.737Z,36.55
2023-11-30T23:23:32.770Z,33.28
2023-11-30T23:26:38.032Z,33.67
2023-11-30T23:29:44.088Z,35.97
2023-11-30T23:32:52.384Z,34.85
2023-11-30T23:35:58.593Z,37.20
2023-11-30T23:39:05.621Z,36.30
2023-11-30T23:42:13.192Z,40.58
2023-11-30T23:45:19.102Z,38.10
2023-11-30T23:48:24.499Z,34.17
2023-11-30T23:51:30.354Z,37.83
2023-11-30T23:54:35.660Z,36.45
2023-11-30T23:57:41.020Z,35.75
